EW9433 Weather Reports


Display with metric or nautical units.
time (UTC)temp
F
wind
direction
speed
MPH
gust
MPH
rain 1hr
in
rain 24hr
in
rain mn
in
humidity
%
barometer
mb
20180221013015 40 337 13.0 21.0 0.24 2.09 2.09 96 1014.9
20180221010015 40 337 13.0 23.0 0.44 2.01 2.01 96 1014.5
20180221003015 41 337 14.0 25.0 0.61 1.85 1.85 96 1013.6
20180221000056 42 337 12.0 21.0 0.71 1.56 1.56 95 1012.4
20180220233015 44 0 13.0 21.0 0.49 1.25 1.24 95 1012.5
20180220230015 47 0 15.0 23.0 0.10 0.86 0.85 93 1011.3
20180220223015 56 337 5.0 18.0 0.01 0.76 0.75 84 1010.3
20180220220015 67 157 4.0 12.0 0.03 0.76 0.75 94 1009.9
20180220213015 67 135 6.0 15.0 0.10 0.75 0.74 94 1009.6
20180220210015 67 135 3.0 10.0 0.12 0.73 0.72 94 1009.5
20180220203015 67 135 3.0 8.0 0.05 0.65 0.64 94 1009.6
20180220200015 67 157 4.0 10.0 0.01 0.61 0.60 93 1009.8
20180220193015 67 157 5.0 13.0 0.02 0.60 0.59 92 1010.3
20180220190015 67 135 5.0 11.0 0.05 0.60 0.59 92 1010.6
20180220183017 67 135 5.0 12.0 0.06 0.58 0.57 92 1011.4
20180220180017 67 135 5.0 11.0 0.04 0.55 0.54 91 1011.9
20180220173037 69 157 6.0 19.0 0.01 0.52 0.51 85 1012.2
20180220170037 70 157 9.0 21.0 0.00 0.51 0.50 81 1012.1
20180220163017 71 135 11.0 27.0 0.00 0.51 0.50 81 1011.6
20180220160017 70 135 9.0 19.0 0.00 0.52 0.50 84 1011.4
20180220153017 69 135 8.0 17.0 0.00 0.52 0.50 87 1011.3
20180220150017 67 135 7.0 14.0 0.00 0.52 0.50 92 1011.6
20180220143017 66 112 4.0 10.0 0.00 0.52 0.50 94 1011.5
20180220140016 65 112 3.0 10.0 0.11 0.52 0.50 93 1011.6
20180220133018 65 135 6.0 13.0 0.36 0.52 0.50 93 1011.5
20180220130037 64 157 6.0 16.0 0.26 0.41 0.39 94 1011.8
20180220123037 65 135 9.0 22.0 0.06 0.16 0.14 93 1011.2
20180220120016 66 135 9.0 19.0 0.12 0.15 0.13 91 1010.6
20180220113017 67 157 8.0 22.0 0.08 0.10 0.08 92 1010.9
20180220110056 69 135 8.0 17.0 0.01 0.03 0.01 88 1010.4
20180220103017 70 157 9.0 20.0 0.00 0.02 0.00 85 1009.9
20180220100117 70 157 10.0 20.0 0.00 0.02 0.00 85 1009.5
20180220093016 70 157 9.0 19.0 0.00 0.02 0.00 86 1009.4
20180220090016 70 157 8.0 19.0 0.00 0.02 0.00 86 1009.0
20180220083016 70 157 8.0 20.0 0.00 0.02 0.00 86 1008.7
20180220080016 70 157 8.0 21.0 0.00 0.02 0.00 86 1009.0
20180220073017 70 157 8.0 23.0 0.00 0.02 0.00 85 1009.0
20180220070017 70 135 7.0 20.0 0.00 0.02 0.00 85 1008.6
20180220063037 70 135 7.0 19.0 0.00 0.02 0.00 85 1008.7
20180220060016 69 135 6.0 14.0 0.00 0.02 0.00 83 1008.9
20180220053016 69 157 5.0 11.0 0.00 0.02 0.02 81 1008.9
20180220050016 69 157 6.0 14.0 0.00 0.02 0.02 79 1008.8
20180220043015 69 157 6.0 15.0 0.00 0.02 0.02 77 1008.6
20180220040015 69 135 7.0 16.0 0.00 0.02 0.02 76 1008.3
20180220033016 70 157 7.0 17.0 0.00 0.02 0.02 76 1008.7
20180220030035 71 135 8.0 17.0 0.00 0.02 0.02 76 1008.4
20180220023035 72 135 9.0 20.0 0.00 0.02 0.02 73 1007.9
20180220020015 73 135 10.0 21.0 0.00 0.02 0.02 73 1007.8